sensor_id;sensor_type;location;lat;lon;timestamp;P1;durP1;ratioP1;P2;durP2;ratioP2
40807;SDS011;26523;52.504;13.498;2023-07-28T00:00:38;3.58;;;1.48;;
40807;SDS011;26523;52.504;13.498;2023-07-28T00:03:03;5.25;;;2.22;;
40807;SDS011;26523;52.504;13.498;2023-07-28T00:05:29;7.65;;;3.65;;
40807;SDS011;26523;52.504;13.498;2023-07-28T00:07:55;5.13;;;1.70;;
40807;SDS011;26523;52.504;13.498;2023-07-28T00:10:20;2.20;;;1.50;;
40807;SDS011;26523;52.504;13.498;2023-07-28T00:12:46;2.60;;;1.40;;
40807;SDS011;26523;52.504;13.498;2023-07-28T00:15:12;2.42;;;1.30;;
40807;SDS011;26523;52.504;13.498;2023-07-28T00:17:38;2.47;;;1.35;;
40807;SDS011;26523;52.504;13.498;2023-07-28T00:20:07;2.13;;;1.40;;
40807;SDS011;26523;52.504;13.498;2023-07-28T00:22:33;2.85;;;1.50;;
40807;SDS011;26523;52.504;13.498;2023-07-28T00:25:00;2.63;;;1.25;;
40807;SDS011;26523;52.504;13.498;2023-07-28T00:27:26;7.43;;;1.73;;
40807;SDS011;26523;52.504;13.498;2023-07-28T00:29:52;5.05;;;1.70;;
40807;SDS011;26523;52.504;13.498;2023-07-28T00:32:19;3.88;;;1.70;;
40807;SDS011;26523;52.504;13.498;2023-07-28T00:34:44;2.72;;;1.42;;
40807;SDS011;26523;52.504;13.498;2023-07-28T00:37:10;3.58;;;1.70;;
40807;SDS011;26523;52.504;13.498;2023-07-28T00:39:36;4.95;;;1.95;;
40807;SDS011;26523;52.504;13.498;2023-07-28T00:42:01;2.97;;;1.83;;
40807;SDS011;26523;52.504;13.498;2023-07-28T00:44:27;4.25;;;2.17;;
40807;SDS011;26523;52.504;13.498;2023-07-28T00:46:59;4.97;;;2.78;;
40807;SDS011;26523;52.504;13.498;2023-07-28T00:49:28;6.05;;;2.50;;
40807;SDS011;26523;52.504;13.498;2023-07-28T00:51:56;5.22;;;2.65;;
40807;SDS011;26523;52.504;13.498;2023-07-28T00:54:28;6.40;;;2.67;;
40807;SDS011;26523;52.504;13.498;2023-07-28T00:56:55;12.35;;;3.60;;
40807;SDS011;26523;52.504;13.498;2023-07-28T00:59:22;5.03;;;3.08;;
40807;SDS011;26523;52.504;13.498;2023-07-28T01:01:48;8.68;;;3.35;;
40807;SDS011;26523;52.504;13.498;2023-07-28T01:04:15;4.70;;;2.65;;
40807;SDS011;26523;52.504;13.498;2023-07-28T01:06:57;6.97;;;3.33;;
40807;SDS011;26523;52.504;13.498;2023-07-28T01:09:40;4.00;;;2.72;;
40807;SDS011;26523;52.504;13.498;2023-07-28T01:12:17;5.03;;;3.00;;
40807;SDS011;26523;52.504;13.498;2023-07-28T01:14:43;6.13;;;2.95;;
40807;SDS011;26523;52.504;13.498;2023-07-28T01:17:10;9.77;;;3.20;;
40807;SDS011;26523;52.504;13.498;2023-07-28T01:19:36;4.18;;;2.53;;
40807;SDS011;26523;52.504;13.498;2023-07-28T01:22:16;4.30;;;2.20;;
40807;SDS011;26523;52.504;13.498;2023-07-28T01:25:21;4.93;;;2.90;;
40807;SDS011;26523;52.504;13.498;2023-07-28T01:28:06;4.80;;;2.35;;
40807;SDS011;26523;52.504;13.498;2023-07-28T01:30:33;4.85;;;2.72;;
40807;SDS011;26523;52.504;13.498;2023-07-28T01:32:59;5.03;;;2.83;;
40807;SDS011;26523;52.504;13.498;2023-07-28T01:35:25;4.43;;;2.63;;
40807;SDS011;26523;52.504;13.498;2023-07-28T01:37:53;3.42;;;2.10;;
40807;SDS011;26523;52.504;13.498;2023-07-28T01:40:20;4.93;;;2.13;;
40807;SDS011;26523;52.504;13.498;2023-07-28T01:42:46;6.10;;;2.50;;
40807;SDS011;26523;52.504;13.498;2023-07-28T01:45:11;5.97;;;2.65;;
40807;SDS011;26523;52.504;13.498;2023-07-28T01:47:37;3.47;;;1.98;;
40807;SDS011;26523;52.504;13.498;2023-07-28T01:50:04;3.75;;;1.77;;
40807;SDS011;26523;52.504;13.498;2023-07-28T01:52:30;5.15;;;2.20;;
40807;SDS011;26523;52.504;13.498;2023-07-28T01:54:59;3.78;;;2.30;;
40807;SDS011;26523;52.504;13.498;2023-07-28T01:57:26;7.60;;;2.42;;
40807;SDS011;26523;52.504;13.498;2023-07-28T01:59:53;6.60;;;2.45;;
40807;SDS011;26523;52.504;13.498;2023-07-28T02:02:19;5.32;;;2.30;;
40807;SDS011;26523;52.504;13.498;2023-07-28T02:04:45;3.67;;;1.95;;
40807;SDS011;26523;52.504;13.498;2023-07-28T02:07:11;5.68;;;2.28;;
40807;SDS011;26523;52.504;13.498;2023-07-28T02:09:36;5.05;;;2.40;;
40807;SDS011;26523;52.504;13.498;2023-07-28T02:12:02;4.07;;;2.60;;
40807;SDS011;26523;52.504;13.498;2023-07-28T02:14:28;3.72;;;2.20;;
40807;SDS011;26523;52.504;13.498;2023-07-28T02:16:54;5.35;;;2.55;;
40807;SDS011;26523;52.504;13.498;2023-07-28T02:19:19;5.57;;;2.38;;
40807;SDS011;26523;52.504;13.498;2023-07-28T02:21:45;9.10;;;3.25;;
40807;SDS011;26523;52.504;13.498;2023-07-28T02:24:11;4.38;;;2.22;;
40807;SDS011;26523;52.504;13.498;2023-07-28T02:26:36;5.50;;;2.70;;
40807;SDS011;26523;52.504;13.498;2023-07-28T02:29:02;4.68;;;2.28;;
40807;SDS011;26523;52.504;13.498;2023-07-28T02:31:28;6.57;;;3.05;;
40807;SDS011;26523;52.504;13.498;2023-07-28T02:33:53;6.50;;;2.70;;
40807;SDS011;26523;52.504;13.498;2023-07-28T02:36:20;6.97;;;2.78;;
40807;SDS011;26523;52.504;13.498;2023-07-28T02:38:45;5.78;;;3.15;;
40807;SDS011;26523;52.504;13.498;2023-07-28T02:41:11;6.75;;;2.35;;
40807;SDS011;26523;52.504;13.498;2023-07-28T02:43:36;5.20;;;2.47;;
40807;SDS011;26523;52.504;13.498;2023-07-28T02:46:02;5.00;;;2.67;;
40807;SDS011;26523;52.504;13.498;2023-07-28T02:48:28;8.55;;;3.08;;
40807;SDS011;26523;52.504;13.498;2023-07-28T02:50:53;5.00;;;2.58;;
40807;SDS011;26523;52.504;13.498;2023-07-28T02:53:19;5.57;;;3.08;;
40807;SDS011;26523;52.504;13.498;2023-07-28T02:55:46;7.75;;;3.40;;
40807;SDS011;26523;52.504;13.498;2023-07-28T02:58:12;6.32;;;2.75;;
40807;SDS011;26523;52.504;13.498;2023-07-28T03:00:39;9.93;;;3.45;;
40807;SDS011;26523;52.504;13.498;2023-07-28T03:03:06;4.50;;;2.90;;
40807;SDS011;26523;52.504;13.498;2023-07-28T03:05:38;7.15;;;3.30;;
40807;SDS011;26523;52.504;13.498;2023-07-28T03:08:04;5.57;;;2.92;;
40807;SDS011;26523;52.504;13.498;2023-07-28T03:10:30;5.57;;;2.75;;
40807;SDS011;26523;52.504;13.498;2023-07-28T03:12:56;7.10;;;3.40;;
40807;SDS011;26523;52.504;13.498;2023-07-28T03:15:25;7.75;;;3.05;;
40807;SDS011;26523;52.504;13.498;2023-07-28T03:17:51;7.18;;;3.40;;
40807;SDS011;26523;52.504;13.498;2023-07-28T03:20:19;8.10;;;3.33;;
40807;SDS011;26523;52.504;13.498;2023-07-28T03:22:45;8.52;;;3.65;;
40807;SDS011;26523;52.504;13.498;2023-07-28T03:25:11;9.25;;;3.25;;
40807;SDS011;26523;52.504;13.498;2023-07-28T03:27:37;5.78;;;3.00;;
40807;SDS011;26523;52.504;13.498;2023-07-28T03:30:03;5.30;;;2.72;;
40807;SDS011;26523;52.504;13.498;2023-07-28T03:32:31;7.47;;;3.67;;
40807;SDS011;26523;52.504;13.498;2023-07-28T03:34:57;7.28;;;3.72;;
40807;SDS011;26523;52.504;13.498;2023-07-28T03:37:23;6.93;;;3.55;;
40807;SDS011;26523;52.504;13.498;2023-07-28T03:39:49;6.03;;;3.28;;
40807;SDS011;26523;52.504;13.498;2023-07-28T03:42:14;5.97;;;2.97;;
40807;SDS011;26523;52.504;13.498;2023-07-28T03:44:42;7.38;;;3.50;;
40807;SDS011;26523;52.504;13.498;2023-07-28T03:47:07;7.63;;;3.10;;
40807;SDS011;26523;52.504;13.498;2023-07-28T03:49:33;6.30;;;3.35;;
40807;SDS011;26523;52.504;13.498;2023-07-28T03:52:00;8.32;;;3.28;;
40807;SDS011;26523;52.504;13.498;2023-07-28T03:54:26;8.00;;;3.45;;
40807;SDS011;26523;52.504;13.498;2023-07-28T03:56:53;7.32;;;3.33;;
40807;SDS011;26523;52.504;13.498;2023-07-28T03:59:18;6.60;;;3.40;;
40807;SDS011;26523;52.504;13.498;2023-07-28T04:01:45;8.35;;;3.85;;
40807;SDS011;26523;52.504;13.498;2023-07-28T04:04:12;8.70;;;3.65;;
40807;SDS011;26523;52.504;13.498;2023-07-28T04:06:44;9.65;;;4.00;;
40807;SDS011;26523;52.504;13.498;2023-07-28T04:09:12;7.05;;;3.20;;
40807;SDS011;26523;52.504;13.498;2023-07-28T04:11:39;7.05;;;3.63;;
40807;SDS011;26523;52.504;13.498;2023-07-28T04:14:05;9.50;;;4.13;;
40807;SDS011;26523;52.504;13.498;2023-07-28T04:16:31;6.78;;;3.58;;
40807;SDS011;26523;52.504;13.498;2023-07-28T04:18:57;10.25;;;3.70;;
40807;SDS011;26523;52.504;13.498;2023-07-28T04:21:26;7.50;;;4.38;;
40807;SDS011;26523;52.504;13.498;2023-07-28T04:23:51;5.13;;;3.20;;
40807;SDS011;26523;52.504;13.498;2023-07-28T04:26:17;6.63;;;3.45;;
40807;SDS011;26523;52.504;13.498;2023-07-28T04:28:45;6.72;;;3.65;;
40807;SDS011;26523;52.504;13.498;2023-07-28T04:31:11;8.07;;;4.47;;
40807;SDS011;26523;52.504;13.498;2023-07-28T04:33:38;5.75;;;3.35;;
40807;SDS011;26523;52.504;13.498;2023-07-28T04:36:06;7.13;;;3.78;;
40807;SDS011;26523;52.504;13.498;2023-07-28T04:38:32;9.05;;;3.97;;
40807;SDS011;26523;52.504;13.498;2023-07-28T04:40:57;6.55;;;3.70;;
40807;SDS011;26523;52.504;13.498;2023-07-28T04:43:23;8.60;;;4.18;;
40807;SDS011;26523;52.504;13.498;2023-07-28T04:45:50;11.00;;;4.18;;
40807;SDS011;26523;52.504;13.498;2023-07-28T04:48:16;7.43;;;3.30;;
40807;SDS011;26523;52.504;13.498;2023-07-28T04:50:41;7.97;;;3.83;;
40807;SDS011;26523;52.504;13.498;2023-07-28T04:53:08;7.57;;;4.05;;
40807;SDS011;26523;52.504;13.498;2023-07-28T04:55:34;10.63;;;4.00;;
40807;SDS011;26523;52.504;13.498;2023-07-28T04:57:59;6.15;;;3.55;;
40807;SDS011;26523;52.504;13.498;2023-07-28T05:00:25;8.77;;;3.85;;
40807;SDS011;26523;52.504;13.498;2023-07-28T05:02:51;8.38;;;4.47;;
40807;SDS011;26523;52.504;13.498;2023-07-28T05:05:16;6.95;;;3.45;;
40807;SDS011;26523;52.504;13.498;2023-07-28T05:07:42;7.65;;;4.25;;
40807;SDS011;26523;52.504;13.498;2023-07-28T05:10:08;7.50;;;4.38;;
40807;SDS011;26523;52.504;13.498;2023-07-28T05:12:34;6.10;;;3.22;;
40807;SDS011;26523;52.504;13.498;2023-07-28T05:15:00;6.35;;;3.67;;
40807;SDS011;26523;52.504;13.498;2023-07-28T05:17:25;6.47;;;3.92;;
40807;SDS011;26523;52.504;13.498;2023-07-28T05:19:51;7.82;;;4.47;;
40807;SDS011;26523;52.504;13.498;2023-07-28T05:22:16;7.20;;;3.97;;
40807;SDS011;26523;52.504;13.498;2023-07-28T05:24:43;7.00;;;3.92;;
40807;SDS011;26523;52.504;13.498;2023-07-28T05:27:09;6.82;;;4.15;;
40807;SDS011;26523;52.504;13.498;2023-07-28T05:29:35;6.53;;;3.35;;
40807;SDS011;26523;52.504;13.498;2023-07-28T05:32:02;7.72;;;3.97;;
40807;SDS011;26523;52.504;13.498;2023-07-28T05:34:29;5.20;;;3.50;;
40807;SDS011;26523;52.504;13.498;2023-07-28T05:36:55;17.48;;;3.97;;
40807;SDS011;26523;52.504;13.498;2023-07-28T05:39:21;5.70;;;3.60;;
40807;SDS011;26523;52.504;13.498;2023-07-28T05:41:47;7.43;;;3.80;;
40807;SDS011;26523;52.504;13.498;2023-07-28T05:44:13;13.25;;;3.33;;
40807;SDS011;26523;52.504;13.498;2023-07-28T05:46:40;7.57;;;3.80;;
40807;SDS011;26523;52.504;13.498;2023-07-28T05:49:06;7.82;;;3.50;;
40807;SDS011;26523;52.504;13.498;2023-07-28T05:51:32;5.97;;;3.72;;
40807;SDS011;26523;52.504;13.498;2023-07-28T05:53:57;6.10;;;3.35;;
40807;SDS011;26523;52.504;13.498;2023-07-28T05:56:23;5.63;;;3.45;;
40807;SDS011;26523;52.504;13.498;2023-07-28T05:58:49;5.72;;;3.65;;
40807;SDS011;26523;52.504;13.498;2023-07-28T06:01:15;6.10;;;3.30;;
40807;SDS011;26523;52.504;13.498;2023-07-28T06:03:41;6.53;;;3.72;;
40807;SDS011;26523;52.504;13.498;2023-07-28T06:06:07;6.90;;;3.72;;
40807;SDS011;26523;52.504;13.498;2023-07-28T06:08:33;5.65;;;3.20;;
40807;SDS011;26523;52.504;13.498;2023-07-28T06:10:59;5.43;;;3.00;;
40807;SDS011;26523;52.504;13.498;2023-07-28T06:13:25;9.00;;;3.65;;
40807;SDS011;26523;52.504;13.498;2023-07-28T06:15:52;4.90;;;3.05;;
40807;SDS011;26523;52.504;13.498;2023-07-28T06:18:19;6.22;;;3.53;;
40807;SDS011;26523;52.504;13.498;2023-07-28T06:20:47;5.82;;;3.50;;
40807;SDS011;26523;52.504;13.498;2023-07-28T06:23:13;4.93;;;3.28;;
40807;SDS011;26523;52.504;13.498;2023-07-28T06:25:38;5.45;;;2.85;;
40807;SDS011;26523;52.504;13.498;2023-07-28T06:28:09;15.23;;;7.15;;
40807;SDS011;26523;52.504;13.498;2023-07-28T06:30:35;6.90;;;3.88;;
40807;SDS011;26523;52.504;13.498;2023-07-28T06:33:02;6.65;;;3.42;;
40807;SDS011;26523;52.504;13.498;2023-07-28T06:35:28;5.75;;;3.00;;
40807;SDS011;26523;52.504;13.498;2023-07-28T06:37:55;6.40;;;3.88;;
40807;SDS011;26523;52.504;13.498;2023-07-28T06:40:21;8.88;;;3.67;;
40807;SDS011;26523;52.504;13.498;2023-07-28T06:42:47;8.95;;;3.85;;
40807;SDS011;26523;52.504;13.498;2023-07-28T06:45:12;6.82;;;3.85;;
40807;SDS011;26523;52.504;13.498;2023-07-28T06:47:39;5.18;;;2.83;;
40807;SDS011;26523;52.504;13.498;2023-07-28T06:50:05;5.47;;;2.92;;
40807;SDS011;26523;52.504;13.498;2023-07-28T06:52:31;6.22;;;3.63;;
40807;SDS011;26523;52.504;13.498;2023-07-28T06:54:56;5.97;;;3.60;;
40807;SDS011;26523;52.504;13.498;2023-07-28T06:57:22;6.68;;;3.28;;
40807;SDS011;26523;52.504;13.498;2023-07-28T06:59:48;5.28;;;2.83;;
40807;SDS011;26523;52.504;13.498;2023-07-28T07:02:15;7.50;;;2.95;;
40807;SDS011;26523;52.504;13.498;2023-07-28T07:04:41;5.53;;;3.20;;
40807;SDS011;26523;52.504;13.498;2023-07-28T07:07:07;4.80;;;2.88;;
40807;SDS011;26523;52.504;13.498;2023-07-28T07:09:33;6.18;;;3.17;;
40807;SDS011;26523;52.504;13.498;2023-07-28T07:11:59;6.95;;;2.50;;
40807;SDS011;26523;52.504;13.498;2023-07-28T07:14:25;3.40;;;2.33;;
40807;SDS011;26523;52.504;13.498;2023-07-28T07:16:51;4.75;;;2.47;;
40807;SDS011;26523;52.504;13.498;2023-07-28T07:19:17;5.50;;;2.92;;
40807;SDS011;26523;52.504;13.498;2023-07-28T07:21:42;6.57;;;2.20;;
40807;SDS011;26523;52.504;13.498;2023-07-28T07:24:09;5.18;;;2.17;;
40807;SDS011;26523;52.504;13.498;2023-07-28T07:26:38;3.05;;;1.92;;
40807;SDS011;26523;52.504;13.498;2023-07-28T07:29:10;4.40;;;1.88;;
40807;SDS011;26523;52.504;13.498;2023-07-28T07:31:35;4.45;;;2.20;;
40807;SDS011;26523;52.504;13.498;2023-07-28T07:34:01;3.90;;;1.83;;
40807;SDS011;26523;52.504;13.498;2023-07-28T07:36:30;3.50;;;1.90;;
40807;SDS011;26523;52.504;13.498;2023-07-28T07:38:57;6.15;;;1.88;;
40807;SDS011;26523;52.504;13.498;2023-07-28T07:41:23;3.42;;;2.13;;
40807;SDS011;26523;52.504;13.498;2023-07-28T07:43:50;4.22;;;2.03;;
40807;SDS011;26523;52.504;13.498;2023-07-28T07:46:18;10.60;;;4.53;;
40807;SDS011;26523;52.504;13.498;2023-07-28T07:48:44;3.22;;;1.52;;
40807;SDS011;26523;52.504;13.498;2023-07-28T07:51:10;3.42;;;1.92;;
40807;SDS011;26523;52.504;13.498;2023-07-28T07:53:36;2.38;;;1.40;;
40807;SDS011;26523;52.504;13.498;2023-07-28T07:56:05;2.90;;;1.42;;
40807;SDS011;26523;52.504;13.498;2023-07-28T07:58:31;2.53;;;1.35;;
40807;SDS011;26523;52.504;13.498;2023-07-28T08:00:58;3.53;;;1.80;;
40807;SDS011;26523;52.504;13.498;2023-07-28T08:03:24;5.97;;;2.70;;
40807;SDS011;26523;52.504;13.498;2023-07-28T08:05:50;2.28;;;1.20;;
40807;SDS011;26523;52.504;13.498;2023-07-28T08:08:16;2.25;;;1.40;;
40807;SDS011;26523;52.504;13.498;2023-07-28T08:10:44;3.83;;;1.20;;
40807;SDS011;26523;52.504;13.498;2023-07-28T08:13:18;2.58;;;1.15;;
40807;SDS011;26523;52.504;13.498;2023-07-28T08:15:46;1.67;;;1.02;;
40807;SDS011;26523;52.504;13.498;2023-07-28T08:18:12;2.17;;;1.20;;
40807;SDS011;26523;52.504;13.498;2023-07-28T08:20:37;1.83;;;1.25;;
40807;SDS011;26523;52.504;13.498;2023-07-28T08:23:03;2.03;;;1.20;;
40807;SDS011;26523;52.504;13.498;2023-07-28T08:25:29;1.33;;;0.80;;
40807;SDS011;26523;52.504;13.498;2023-07-28T08:27:55;1.38;;;0.80;;
40807;SDS011;26523;52.504;13.498;2023-07-28T08:30:23;1.73;;;0.93;;
40807;SDS011;26523;52.504;13.498;2023-07-28T08:32:49;1.10;;;0.77;;
40807;SDS011;26523;52.504;13.498;2023-07-28T08:35:17;2.78;;;0.98;;
40807;SDS011;26523;52.504;13.498;2023-07-28T08:37:43;2.67;;;1.13;;
40807;SDS011;26523;52.504;13.498;2023-07-28T08:40:09;1.90;;;1.20;;
40807;SDS011;26523;52.504;13.498;2023-07-28T08:42:37;3.08;;;0.90;;
40807;SDS011;26523;52.504;13.498;2023-07-28T08:45:09;1.97;;;1.13;;
40807;SDS011;26523;52.504;13.498;2023-07-28T08:47:36;1.50;;;0.82;;
40807;SDS011;26523;52.504;13.498;2023-07-28T08:50:04;2.22;;;0.88;;
40807;SDS011;26523;52.504;13.498;2023-07-28T08:52:32;1.33;;;1.00;;
40807;SDS011;26523;52.504;13.498;2023-07-28T08:55:00;1.17;;;0.70;;
40807;SDS011;26523;52.504;13.498;2023-07-28T08:57:26;1.23;;;0.80;;
40807;SDS011;26523;52.504;13.498;2023-07-28T08:59:52;3.00;;;1.60;;
40807;SDS011;26523;52.504;13.498;2023-07-28T09:02:19;2.13;;;1.10;;
40807;SDS011;26523;52.504;13.498;2023-07-28T09:04:45;1.58;;;0.63;;
40807;SDS011;26523;52.504;13.498;2023-07-28T09:07:12;2.00;;;0.77;;
40807;SDS011;26523;52.504;13.498;2023-07-28T09:09:39;2.45;;;0.70;;
40807;SDS011;26523;52.504;13.498;2023-07-28T09:12:08;1.50;;;0.82;;
40807;SDS011;26523;52.504;13.498;2023-07-28T09:14:35;2.13;;;0.90;;
40807;SDS011;26523;52.504;13.498;2023-07-28T09:17:12;1.10;;;0.80;;
40807;SDS011;26523;52.504;13.498;2023-07-28T09:19:54;1.17;;;0.65;;
40807;SDS011;26523;52.504;13.498;2023-07-28T09:22:21;2.97;;;1.05;;
40807;SDS011;26523;52.504;13.498;2023-07-28T09:24:47;2.55;;;1.10;;
40807;SDS011;26523;52.504;13.498;2023-07-28T09:27:23;1.48;;;0.90;;
40807;SDS011;26523;52.504;13.498;2023-07-28T09:29:51;3.42;;;0.95;;
40807;SDS011;26523;52.504;13.498;2023-07-28T09:32:27;1.58;;;0.93;;
40807;SDS011;26523;52.504;13.498;2023-07-28T09:35:06;1.90;;;0.98;;
40807;SDS011;26523;52.504;13.498;2023-07-28T09:37:39;1.13;;;0.90;;
40807;SDS011;26523;52.504;13.498;2023-07-28T09:40:09;1.63;;;1.10;;
40807;SDS011;26523;52.504;13.498;2023-07-28T09:42:44;4.45;;;0.90;;
40807;SDS011;26523;52.504;13.498;2023-07-28T09:45:16;4.35;;;1.00;;
40807;SDS011;26523;52.504;13.498;2023-07-28T09:47:44;2.83;;;0.90;;
40807;SDS011;26523;52.504;13.498;2023-07-28T09:50:16;0.73;;;0.60;;
40807;SDS011;26523;52.504;13.498;2023-07-28T09:52:44;1.38;;;0.88;;
40807;SDS011;26523;52.504;13.498;2023-07-28T09:55:11;1.95;;;0.90;;
40807;SDS011;26523;52.504;13.498;2023-07-28T09:57:45;1.50;;;0.95;;
40807;SDS011;26523;52.504;13.498;2023-07-28T10:00:16;2.13;;;1.00;;
40807;SDS011;26523;52.504;13.498;2023-07-28T10:02:42;5.05;;;1.00;;
40807;SDS011;26523;52.504;13.498;2023-07-28T10:05:09;1.88;;;1.08;;
40807;SDS011;26523;52.504;13.498;2023-07-28T10:07:37;2.83;;;1.20;;
40807;SDS011;26523;52.504;13.498;2023-07-28T10:10:06;1.95;;;1.13;;
40807;SDS011;26523;52.504;13.498;2023-07-28T10:12:41;2.88;;;1.23;;
40807;SDS011;26523;52.504;13.498;2023-07-28T10:15:20;3.42;;;1.25;;
40807;SDS011;26523;52.504;13.498;2023-07-28T10:17:54;1.77;;;1.10;;
40807;SDS011;26523;52.504;13.498;2023-07-28T10:20:28;3.30;;;1.17;;
40807;SDS011;26523;52.504;13.498;2023-07-28T10:23:16;4.13;;;1.73;;
40807;SDS011;26523;52.504;13.498;2023-07-28T10:25:45;4.22;;;2.55;;
40807;SDS011;26523;52.504;13.498;2023-07-28T10:30:58;2.25;;;1.35;;
40807;SDS011;26523;52.504;13.498;2023-07-28T10:33:31;2.28;;;1.25;;
40807;SDS011;26523;52.504;13.498;2023-07-28T10:38:46;2.28;;;1.23;;
40807;SDS011;26523;52.504;13.498;2023-07-28T10:41:37;2.83;;;1.23;;
40807;SDS011;26523;52.504;13.498;2023-07-28T10:44:03;3.00;;;1.20;;
40807;SDS011;26523;52.504;13.498;2023-07-28T10:46:29;6.53;;;1.67;;
40807;SDS011;26523;52.504;13.498;2023-07-28T10:48:55;2.92;;;1.85;;
40807;SDS011;26523;52.504;13.498;2023-07-28T10:51:27;1.80;;;1.30;;
40807;SDS011;26523;52.504;13.498;2023-07-28T10:53:59;3.90;;;1.60;;
40807;SDS011;26523;52.504;13.498;2023-07-28T10:56:27;1.85;;;1.10;;
40807;SDS011;26523;52.504;13.498;2023-07-28T10:58:57;2.28;;;1.40;;
40807;SDS011;26523;52.504;13.498;2023-07-28T11:01:31;2.38;;;1.52;;
40807;SDS011;26523;52.504;13.498;2023-07-28T11:06:43;2.55;;;1.50;;
40807;SDS011;26523;52.504;13.498;2023-07-28T11:09:15;7.68;;;2.60;;
40807;SDS011;26523;52.504;13.498;2023-07-28T11:11:42;3.28;;;1.58;;
40807;SDS011;26523;52.504;13.498;2023-07-28T11:14:10;2.83;;;1.40;;
40807;SDS011;26523;52.504;13.498;2023-07-28T11:16:37;3.00;;;1.50;;
40807;SDS011;26523;52.504;13.498;2023-07-28T11:19:11;2.17;;;1.10;;
40807;SDS011;26523;52.504;13.498;2023-07-28T11:21:41;2.30;;;1.10;;
40807;SDS011;26523;52.504;13.498;2023-07-28T11:24:08;3.92;;;1.77;;
40807;SDS011;26523;52.504;13.498;2023-07-28T11:26:39;4.80;;;1.80;;
40807;SDS011;26523;52.504;13.498;2023-07-28T11:29:23;4.55;;;1.88;;
40807;SDS011;26523;52.504;13.498;2023-07-28T11:31:49;7.60;;;1.77;;
40807;SDS011;26523;52.504;13.498;2023-07-28T11:34:17;2.78;;;1.33;;
40807;SDS011;26523;52.504;13.498;2023-07-28T11:36:43;5.53;;;1.48;;
40807;SDS011;26523;52.504;13.498;2023-07-28T11:39:09;3.67;;;1.23;;
40807;SDS011;26523;52.504;13.498;2023-07-28T11:41:36;4.03;;;1.50;;
40807;SDS011;26523;52.504;13.498;2023-07-28T11:44:02;3.50;;;1.80;;
40807;SDS011;26523;52.504;13.498;2023-07-28T11:49:21;2.72;;;1.40;;
40807;SDS011;26523;52.504;13.498;2023-07-28T11:51:48;2.60;;;1.67;;
40807;SDS011;26523;52.504;13.498;2023-07-28T11:54:17;2.83;;;1.52;;
40807;SDS011;26523;52.504;13.498;2023-07-28T11:56:47;3.03;;;1.20;;
40807;SDS011;26523;52.504;13.498;2023-07-28T11:59:15;3.10;;;1.60;;
40807;SDS011;26523;52.504;13.498;2023-07-28T12:01:51;2.67;;;1.30;;
40807;SDS011;26523;52.504;13.498;2023-07-28T12:04:28;1.92;;;1.30;;
40807;SDS011;26523;52.504;13.498;2023-07-28T12:07:06;4.22;;;1.50;;
40807;SDS011;26523;52.504;13.498;2023-07-28T12:12:16;2.55;;;1.33;;
40807;SDS011;26523;52.504;13.498;2023-07-28T12:14:44;4.75;;;1.38;;
40807;SDS011;26523;52.504;13.498;2023-07-28T12:17:15;3.15;;;1.30;;
40807;SDS011;26523;52.504;13.498;2023-07-28T12:20:02;2.15;;;1.20;;
40807;SDS011;26523;52.504;13.498;2023-07-28T12:22:44;2.92;;;1.20;;
40807;SDS011;26523;52.504;13.498;2023-07-28T12:25:12;2.60;;;1.10;;
40807;SDS011;26523;52.504;13.498;2023-07-28T12:27:40;2.80;;;1.10;;
40807;SDS011;26523;52.504;13.498;2023-07-28T12:30:07;2.40;;;1.45;;
40807;SDS011;26523;52.504;13.498;2023-07-28T12:32:34;1.85;;;1.08;;
40807;SDS011;26523;52.504;13.498;2023-07-28T12:34:59;7.47;;;1.52;;
40807;SDS011;26523;52.504;13.498;2023-07-28T12:37:25;2.90;;;1.17;;
40807;SDS011;26523;52.504;13.498;2023-07-28T12:39:51;2.08;;;1.17;;
40807;SDS011;26523;52.504;13.498;2023-07-28T12:42:17;2.53;;;1.40;;
40807;SDS011;26523;52.504;13.498;2023-07-28T12:44:44;2.75;;;1.33;;
40807;SDS011;26523;52.504;13.498;2023-07-28T12:47:09;2.85;;;1.52;;
40807;SDS011;26523;52.504;13.498;2023-07-28T12:49:35;3.97;;;1.40;;
40807;SDS011;26523;52.504;13.498;2023-07-28T12:52:03;4.60;;;1.75;;
40807;SDS011;26523;52.504;13.498;2023-07-28T12:54:32;2.97;;;1.23;;
40807;SDS011;26523;52.504;13.498;2023-07-28T12:56:58;2.03;;;1.30;;
40807;SDS011;26523;52.504;13.498;2023-07-28T12:59:24;4.82;;;1.13;;
40807;SDS011;26523;52.504;13.498;2023-07-28T13:01:50;4.10;;;1.45;;
40807;SDS011;26523;52.504;13.498;2023-07-28T13:04:15;3.78;;;1.08;;
40807;SDS011;26523;52.504;13.498;2023-07-28T13:06:41;5.85;;;1.55;;
40807;SDS011;26523;52.504;13.498;2023-07-28T13:09:07;1.70;;;1.05;;
40807;SDS011;26523;52.504;13.498;2023-07-28T13:11:33;1.23;;;0.80;;
40807;SDS011;26523;52.504;13.498;2023-07-28T13:13:59;1.92;;;1.20;;
40807;SDS011;26523;52.504;13.498;2023-07-28T13:16:25;1.77;;;1.20;;
40807;SDS011;26523;52.504;13.498;2023-07-28T13:18:51;2.30;;;1.20;;
40807;SDS011;26523;52.504;13.498;2023-07-28T13:21:17;2.15;;;1.20;;
40807;SDS011;26523;52.504;13.498;2023-07-28T13:23:43;2.13;;;1.10;;
40807;SDS011;26523;52.504;13.498;2023-07-28T13:26:10;1.92;;;0.90;;
40807;SDS011;26523;52.504;13.498;2023-07-28T13:28:36;2.42;;;1.15;;
40807;SDS011;26523;52.504;13.498;2023-07-28T13:31:02;5.45;;;1.52;;
40807;SDS011;26523;52.504;13.498;2023-07-28T13:33:28;2.60;;;1.45;;
40807;SDS011;26523;52.504;13.498;2023-07-28T13:35:53;2.60;;;1.30;;
40807;SDS011;26523;52.504;13.498;2023-07-28T13:38:20;2.22;;;1.27;;
40807;SDS011;26523;52.504;13.498;2023-07-28T13:40:46;5.68;;;1.80;;
40807;SDS011;26523;52.504;13.498;2023-07-28T13:43:17;3.50;;;1.60;;
40807;SDS011;26523;52.504;13.498;2023-07-28T13:45:43;5.05;;;1.40;;
40807;SDS011;26523;52.504;13.498;2023-07-28T13:48:09;2.70;;;1.30;;
40807;SDS011;26523;52.504;13.498;2023-07-28T13:50:35;1.65;;;1.17;;
40807;SDS011;26523;52.504;13.498;2023-07-28T13:53:01;4.53;;;2.10;;
40807;SDS011;26523;52.504;13.498;2023-07-28T13:55:27;3.47;;;1.60;;
40807;SDS011;26523;52.504;13.498;2023-07-28T13:57:52;2.30;;;1.60;;
40807;SDS011;26523;52.504;13.498;2023-07-28T14:00:18;3.47;;;1.52;;
40807;SDS011;26523;52.504;13.498;2023-07-28T14:02:43;5.78;;;1.63;;
40807;SDS011;26523;52.504;13.498;2023-07-28T14:05:10;3.80;;;1.90;;
40807;SDS011;26523;52.504;13.498;2023-07-28T14:07:37;1.95;;;1.20;;
40807;SDS011;26523;52.504;13.498;2023-07-28T14:10:03;4.20;;;1.50;;
40807;SDS011;26523;52.504;13.498;2023-07-28T14:12:29;2.30;;;1.33;;
40807;SDS011;26523;52.504;13.498;2023-07-28T14:14:56;2.47;;;1.30;;
40807;SDS011;26523;52.504;13.498;2023-07-28T14:17:21;2.28;;;1.30;;
40807;SDS011;26523;52.504;13.498;2023-07-28T14:19:47;2.67;;;1.58;;
40807;SDS011;26523;52.504;13.498;2023-07-28T14:22:13;2.67;;;1.58;;
40807;SDS011;26523;52.504;13.498;2023-07-28T14:24:40;3.08;;;1.10;;
40807;SDS011;26523;52.504;13.498;2023-07-28T14:27:07;2.45;;;1.05;;
40807;SDS011;26523;52.504;13.498;2023-07-28T14:29:32;2.38;;;1.02;;
40807;SDS011;26523;52.504;13.498;2023-07-28T14:31:58;4.50;;;1.40;;
40807;SDS011;26523;52.504;13.498;2023-07-28T14:34:24;2.67;;;1.10;;
40807;SDS011;26523;52.504;13.498;2023-07-28T14:37:10;2.38;;;1.00;;
40807;SDS011;26523;52.504;13.498;2023-07-28T14:39:37;4.35;;;1.92;;
40807;SDS011;26523;52.504;13.498;2023-07-28T14:42:06;4.13;;;2.50;;
40807;SDS011;26523;52.504;13.498;2023-07-28T14:44:33;1.90;;;1.20;;
40807;SDS011;26523;52.504;13.498;2023-07-28T14:46:58;2.55;;;1.60;;
40807;SDS011;26523;52.504;13.498;2023-07-28T14:49:24;1.88;;;1.13;;